map of EDI home
EDI - Airport
Location
City:  Edinburgh, Midlothian, Scotland, United Kingdom
Name:Edinburgh Airport
Old (Alt.):RAF Turnhouse
ICAO:EGPH
IATA:EDI

Details
Type:Airport (Aerodrome, Airfield)
Use:Public/Civil, International (customs port of entry)
Latitude:5557'00"N (55.950000)
Longitude:322'21"W (-3.372499)
Elevation:136 ft (41 m)
Variation:2.27W (WMM2015 magnetic declination)
0.17 annual change
Runways:2
Longest:8386 × 151 ft (2556 × 46 m), paved

Time
Time Zone:UTC+0 (DST+1)
Local Time:

Weather
METAR:EGPH 260250Z 06004KT 9999 OVC034 00/M03 Q1036
TAF:EGPH 252257Z 2600/2624 10006KT 9999 SCT035 PROB30
TEMPO 2620/2624 4000 -SHSN BKN008

Related Locations
Nearby:
Farthest:SZS: 11707 mi / 18841 km
Ryan's Creek, Stewart Island, STL, NZ

Find:

   beyond  
but within

Other Information
Maps:
NOTAMs:
Links:
Sources:

  
flag of United Kingdom
flag of Scotland
flag of Edinburgh
  

Airport Diagram

Airport diagram for EDI

Airport diagram PDF

Sectional Chart

Flight Planning
at skyvector.com

Satellite Image

Google Maps Satellite view

 

Copyright © 2004-2018 Karl L. Swartz. All rights reserved.
The Great Circle Mapper name and logo are trademarks of the Great Circle Mapper.
All other trademarks mentioned herein belong to their respective owners.
Please see credits for attibutions and further copyright information.

  Follow gcmap on Facebook Follow gcmap on Twitter Follow gcmap on Google+ GCmap on LinkedIn

hCard Microformat

Geo Microformat